sensor_id;sensor_type;location;lat;lon;timestamp;P1;durP1;ratioP1;P2;durP2;ratioP2
55364;SDS011;41245;45.384;20.390;2023-06-22T00:00:55;19.35;;;11.52;;
55364;SDS011;41245;45.384;20.390;2023-06-22T00:03:21;14.20;;;10.73;;
55364;SDS011;41245;45.384;20.390;2023-06-22T00:05:49;14.80;;;11.48;;
55364;SDS011;41245;45.384;20.390;2023-06-22T00:08:15;22.67;;;12.07;;
55364;SDS011;41245;45.384;20.390;2023-06-22T00:10:42;15.18;;;10.43;;
55364;SDS011;41245;45.384;20.390;2023-06-22T00:13:09;22.05;;;11.98;;
55364;SDS011;41245;45.384;20.390;2023-06-22T00:15:36;19.10;;;11.07;;
55364;SDS011;41245;45.384;20.390;2023-06-22T00:18:03;14.30;;;10.65;;
55364;SDS011;41245;45.384;20.390;2023-06-22T00:20:29;16.52;;;11.02;;
55364;SDS011;41245;45.384;20.390;2023-06-22T00:22:55;15.02;;;11.02;;
55364;SDS011;41245;45.384;20.390;2023-06-22T00:25:22;21.60;;;12.90;;
55364;SDS011;41245;45.384;20.390;2023-06-22T00:27:48;14.02;;;10.95;;
55364;SDS011;41245;45.384;20.390;2023-06-22T00:30:17;14.05;;;11.00;;
55364;SDS011;41245;45.384;20.390;2023-06-22T00:32:44;12.95;;;10.32;;
55364;SDS011;41245;45.384;20.390;2023-06-22T00:35:11;20.40;;;11.15;;
55364;SDS011;41245;45.384;20.390;2023-06-22T00:37:37;18.02;;;12.00;;
55364;SDS011;41245;45.384;20.390;2023-06-22T00:40:07;17.85;;;10.45;;
55364;SDS011;41245;45.384;20.390;2023-06-22T00:42:36;16.83;;;11.68;;
55364;SDS011;41245;45.384;20.390;2023-06-22T00:45:02;18.38;;;12.40;;
55364;SDS011;41245;45.384;20.390;2023-06-22T00:47:27;16.85;;;11.88;;
55364;SDS011;41245;45.384;20.390;2023-06-22T00:49:53;13.43;;;11.60;;
55364;SDS011;41245;45.384;20.390;2023-06-22T00:52:20;20.45;;;11.45;;
55364;SDS011;41245;45.384;20.390;2023-06-22T00:54:54;16.88;;;11.15;;
55364;SDS011;41245;45.384;20.390;2023-06-22T00:57:21;23.77;;;12.27;;
55364;SDS011;41245;45.384;20.390;2023-06-22T00:59:53;14.02;;;10.98;;
55364;SDS011;41245;45.384;20.390;2023-06-22T01:02:19;15.25;;;10.90;;
55364;SDS011;41245;45.384;20.390;2023-06-22T01:04:45;19.63;;;12.73;;
55364;SDS011;41245;45.384;20.390;2023-06-22T01:09:59;20.15;;;12.65;;
55364;SDS011;41245;45.384;20.390;2023-06-22T01:12:34;17.20;;;11.82;;
55364;SDS011;41245;45.384;20.390;2023-06-22T01:17:56;14.77;;;11.35;;
55364;SDS011;41245;45.384;20.390;2023-06-22T01:20:23;18.92;;;12.68;;
55364;SDS011;41245;45.384;20.390;2023-06-22T01:23:11;16.40;;;11.77;;
55364;SDS011;41245;45.384;20.390;2023-06-22T01:30:57;12.48;;;9.80;;
55364;SDS011;41245;45.384;20.390;2023-06-22T01:33:30;20.73;;;12.52;;
55364;SDS011;41245;45.384;20.390;2023-06-22T01:35:58;26.50;;;12.68;;
55364;SDS011;41245;45.384;20.390;2023-06-22T01:38:25;16.55;;;11.30;;
55364;SDS011;41245;45.384;20.390;2023-06-22T01:40:52;17.45;;;12.52;;
55364;SDS011;41245;45.384;20.390;2023-06-22T01:43:18;18.40;;;12.10;;
55364;SDS011;41245;45.384;20.390;2023-06-22T01:45:45;26.63;;;13.40;;
55364;SDS011;41245;45.384;20.390;2023-06-22T01:48:11;16.80;;;11.68;;
55364;SDS011;41245;45.384;20.390;2023-06-22T01:50:37;23.35;;;12.38;;
55364;SDS011;41245;45.384;20.390;2023-06-22T01:53:03;19.27;;;12.10;;
55364;SDS011;41245;45.384;20.390;2023-06-22T01:55:31;17.55;;;11.50;;
55364;SDS011;41245;45.384;20.390;2023-06-22T01:57:57;15.85;;;11.77;;
55364;SDS011;41245;45.384;20.390;2023-06-22T02:00:24;24.08;;;12.35;;
55364;SDS011;41245;45.384;20.390;2023-06-22T02:05:17;20.02;;;12.00;;
55364;SDS011;41245;45.384;20.390;2023-06-22T02:07:45;13.43;;;11.15;;
55364;SDS011;41245;45.384;20.390;2023-06-22T02:10:12;17.65;;;10.50;;
55364;SDS011;41245;45.384;20.390;2023-06-22T02:12:40;14.45;;;11.45;;
55364;SDS011;41245;45.384;20.390;2023-06-22T02:15:08;20.83;;;11.73;;
55364;SDS011;41245;45.384;20.390;2023-06-22T02:17:35;22.65;;;11.50;;
55364;SDS011;41245;45.384;20.390;2023-06-22T02:20:02;13.80;;;10.88;;
55364;SDS011;41245;45.384;20.390;2023-06-22T02:22:33;20.90;;;11.05;;
55364;SDS011;41245;45.384;20.390;2023-06-22T02:24:59;19.48;;;11.65;;
55364;SDS011;41245;45.384;20.390;2023-06-22T02:27:26;17.33;;;11.10;;
55364;SDS011;41245;45.384;20.390;2023-06-22T02:29:52;23.38;;;10.70;;
55364;SDS011;41245;45.384;20.390;2023-06-22T02:32:18;24.00;;;12.05;;
55364;SDS011;41245;45.384;20.390;2023-06-22T02:34:44;13.65;;;10.52;;
55364;SDS011;41245;45.384;20.390;2023-06-22T02:37:12;18.27;;;11.98;;
55364;SDS011;41245;45.384;20.390;2023-06-22T02:39:42;16.80;;;11.65;;
55364;SDS011;41245;45.384;20.390;2023-06-22T02:42:08;23.27;;;11.52;;
55364;SDS011;41245;45.384;20.390;2023-06-22T02:44:37;15.07;;;11.80;;
55364;SDS011;41245;45.384;20.390;2023-06-22T02:47:03;25.55;;;11.85;;
55364;SDS011;41245;45.384;20.390;2023-06-22T02:49:30;17.73;;;10.80;;
55364;SDS011;41245;45.384;20.390;2023-06-22T02:51:57;18.20;;;12.05;;
55364;SDS011;41245;45.384;20.390;2023-06-22T02:54:23;23.50;;;12.55;;
55364;SDS011;41245;45.384;20.390;2023-06-22T02:56:49;17.00;;;11.48;;
55364;SDS011;41245;45.384;20.390;2023-06-22T02:59:15;19.50;;;12.18;;
55364;SDS011;41245;45.384;20.390;2023-06-22T03:01:42;20.40;;;10.90;;
55364;SDS011;41245;45.384;20.390;2023-06-22T03:04:08;17.65;;;10.93;;
55364;SDS011;41245;45.384;20.390;2023-06-22T03:06:35;16.88;;;11.45;;
55364;SDS011;41245;45.384;20.390;2023-06-22T03:09:04;17.45;;;11.52;;
55364;SDS011;41245;45.384;20.390;2023-06-22T03:11:30;20.23;;;11.32;;
55364;SDS011;41245;45.384;20.390;2023-06-22T03:13:57;16.40;;;11.60;;
55364;SDS011;41245;45.384;20.390;2023-06-22T03:16:23;17.42;;;11.75;;
55364;SDS011;41245;45.384;20.390;2023-06-22T03:18:49;17.42;;;11.15;;
55364;SDS011;41245;45.384;20.390;2023-06-22T03:21:15;16.13;;;10.10;;
55364;SDS011;41245;45.384;20.390;2023-06-22T03:23:42;16.98;;;10.55;;
55364;SDS011;41245;45.384;20.390;2023-06-22T03:26:08;14.85;;;10.13;;
55364;SDS011;41245;45.384;20.390;2023-06-22T03:28:35;14.35;;;10.32;;
55364;SDS011;41245;45.384;20.390;2023-06-22T03:31:01;29.40;;;11.35;;
55364;SDS011;41245;45.384;20.390;2023-06-22T03:33:27;16.85;;;10.27;;
55364;SDS011;41245;45.384;20.390;2023-06-22T03:35:53;14.32;;;10.10;;
55364;SDS011;41245;45.384;20.390;2023-06-22T03:38:19;24.13;;;12.20;;
55364;SDS011;41245;45.384;20.390;2023-06-22T03:40:45;21.92;;;12.23;;
55364;SDS011;41245;45.384;20.390;2023-06-22T03:43:11;16.05;;;10.63;;
55364;SDS011;41245;45.384;20.390;2023-06-22T03:45:37;21.35;;;10.38;;
55364;SDS011;41245;45.384;20.390;2023-06-22T03:48:05;15.40;;;9.45;;
55364;SDS011;41245;45.384;20.390;2023-06-22T03:50:31;13.57;;;9.85;;
55364;SDS011;41245;45.384;20.390;2023-06-22T03:52:57;12.75;;;9.75;;
55364;SDS011;41245;45.384;20.390;2023-06-22T03:55:23;13.15;;;10.93;;
55364;SDS011;41245;45.384;20.390;2023-06-22T03:57:49;16.60;;;10.10;;
55364;SDS011;41245;45.384;20.390;2023-06-22T04:00:15;19.92;;;10.75;;
55364;SDS011;41245;45.384;20.390;2023-06-22T04:02:41;14.88;;;10.13;;
55364;SDS011;41245;45.384;20.390;2023-06-22T04:05:08;14.35;;;10.00;;
55364;SDS011;41245;45.384;20.390;2023-06-22T04:07:34;10.60;;;9.25;;
55364;SDS011;41245;45.384;20.390;2023-06-22T04:10:02;14.30;;;10.15;;
55364;SDS011;41245;45.384;20.390;2023-06-22T04:12:29;15.38;;;9.32;;
55364;SDS011;41245;45.384;20.390;2023-06-22T04:14:54;16.50;;;10.75;;
55364;SDS011;41245;45.384;20.390;2023-06-22T04:17:20;17.77;;;10.48;;
55364;SDS011;41245;45.384;20.390;2023-06-22T04:19:46;17.95;;;9.70;;
55364;SDS011;41245;45.384;20.390;2023-06-22T04:22:12;12.68;;;10.55;;
55364;SDS011;41245;45.384;20.390;2023-06-22T04:24:38;19.45;;;10.55;;
55364;SDS011;41245;45.384;20.390;2023-06-22T04:27:03;17.83;;;11.20;;
55364;SDS011;41245;45.384;20.390;2023-06-22T04:29:30;25.85;;;11.88;;
55364;SDS011;41245;45.384;20.390;2023-06-22T04:31:56;16.00;;;10.82;;
55364;SDS011;41245;45.384;20.390;2023-06-22T04:34:23;13.93;;;9.93;;
55364;SDS011;41245;45.384;20.390;2023-06-22T04:36:51;15.50;;;9.77;;
55364;SDS011;41245;45.384;20.390;2023-06-22T04:39:17;15.35;;;9.68;;
55364;SDS011;41245;45.384;20.390;2023-06-22T04:41:44;13.55;;;8.82;;
55364;SDS011;41245;45.384;20.390;2023-06-22T04:46:52;13.13;;;10.27;;
55364;SDS011;41245;45.384;20.390;2023-06-22T04:49:22;14.40;;;9.77;;
55364;SDS011;41245;45.384;20.390;2023-06-22T04:51:57;19.00;;;9.55;;
55364;SDS011;41245;45.384;20.390;2023-06-22T04:54:30;10.63;;;9.02;;
55364;SDS011;41245;45.384;20.390;2023-06-22T04:57:02;12.85;;;8.70;;
55364;SDS011;41245;45.384;20.390;2023-06-22T04:59:30;15.93;;;9.10;;
55364;SDS011;41245;45.384;20.390;2023-06-22T05:02:00;15.73;;;8.85;;
55364;SDS011;41245;45.384;20.390;2023-06-22T05:04:27;14.35;;;7.82;;
55364;SDS011;41245;45.384;20.390;2023-06-22T05:06:56;11.38;;;8.60;;
55364;SDS011;41245;45.384;20.390;2023-06-22T05:09:23;10.38;;;8.07;;
55364;SDS011;41245;45.384;20.390;2023-06-22T05:11:50;12.07;;;7.75;;
55364;SDS011;41245;45.384;20.390;2023-06-22T05:14:16;9.07;;;8.13;;
55364;SDS011;41245;45.384;20.390;2023-06-22T05:16:42;12.40;;;8.20;;
55364;SDS011;41245;45.384;20.390;2023-06-22T05:19:08;14.95;;;9.43;;
55364;SDS011;41245;45.384;20.390;2023-06-22T05:21:34;15.90;;;8.27;;
55364;SDS011;41245;45.384;20.390;2023-06-22T05:24:00;15.38;;;8.48;;
55364;SDS011;41245;45.384;20.390;2023-06-22T05:26:27;10.77;;;7.97;;
55364;SDS011;41245;45.384;20.390;2023-06-22T05:28:58;12.68;;;7.95;;
55364;SDS011;41245;45.384;20.390;2023-06-22T05:31:24;11.48;;;7.63;;
55364;SDS011;41245;45.384;20.390;2023-06-22T05:33:51;16.63;;;8.45;;
55364;SDS011;41245;45.384;20.390;2023-06-22T05:36:18;16.02;;;9.63;;
55364;SDS011;41245;45.384;20.390;2023-06-22T05:38:50;12.77;;;9.27;;
55364;SDS011;41245;45.384;20.390;2023-06-22T05:41:16;17.85;;;9.45;;
55364;SDS011;41245;45.384;20.390;2023-06-22T05:43:42;9.70;;;8.70;;
55364;SDS011;41245;45.384;20.390;2023-06-22T05:46:08;9.48;;;7.70;;
55364;SDS011;41245;45.384;20.390;2023-06-22T05:48:34;11.80;;;8.32;;
55364;SDS011;41245;45.384;20.390;2023-06-22T05:51:00;18.23;;;8.50;;
55364;SDS011;41245;45.384;20.390;2023-06-22T05:53:25;8.43;;;7.57;;
55364;SDS011;41245;45.384;20.390;2023-06-22T05:55:51;13.60;;;8.60;;
55364;SDS011;41245;45.384;20.390;2023-06-22T05:58:17;11.50;;;7.97;;
55364;SDS011;41245;45.384;20.390;2023-06-22T06:00:42;10.02;;;8.18;;
55364;SDS011;41245;45.384;20.390;2023-06-22T06:03:09;11.98;;;7.88;;
55364;SDS011;41245;45.384;20.390;2023-06-22T06:05:35;9.68;;;7.38;;
55364;SDS011;41245;45.384;20.390;2023-06-22T06:08:03;15.00;;;7.82;;
55364;SDS011;41245;45.384;20.390;2023-06-22T06:10:31;13.30;;;8.40;;
55364;SDS011;41245;45.384;20.390;2023-06-22T06:12:57;13.63;;;8.98;;
55364;SDS011;41245;45.384;20.390;2023-06-22T06:15:24;13.85;;;8.82;;
55364;SDS011;41245;45.384;20.390;2023-06-22T06:17:50;16.95;;;9.98;;
55364;SDS011;41245;45.384;20.390;2023-06-22T06:20:18;17.05;;;8.70;;
55364;SDS011;41245;45.384;20.390;2023-06-22T06:22:44;11.93;;;8.38;;
55364;SDS011;41245;45.384;20.390;2023-06-22T06:25:10;16.55;;;8.75;;
55364;SDS011;41245;45.384;20.390;2023-06-22T06:27:47;13.93;;;8.60;;
55364;SDS011;41245;45.384;20.390;2023-06-22T06:30:14;13.70;;;10.85;;
55364;SDS011;41245;45.384;20.390;2023-06-22T06:32:40;13.00;;;8.30;;
55364;SDS011;41245;45.384;20.390;2023-06-22T06:35:07;11.45;;;8.02;;
55364;SDS011;41245;45.384;20.390;2023-06-22T06:37:38;9.05;;;7.70;;
55364;SDS011;41245;45.384;20.390;2023-06-22T06:40:04;12.40;;;8.32;;
55364;SDS011;41245;45.384;20.390;2023-06-22T06:42:35;14.85;;;7.60;;
55364;SDS011;41245;45.384;20.390;2023-06-22T06:45:02;9.93;;;8.13;;
55364;SDS011;41245;45.384;20.390;2023-06-22T06:47:29;8.02;;;7.22;;
55364;SDS011;41245;45.384;20.390;2023-06-22T06:49:56;8.55;;;7.22;;
55364;SDS011;41245;45.384;20.390;2023-06-22T06:52:22;17.73;;;7.97;;
55364;SDS011;41245;45.384;20.390;2023-06-22T06:54:48;13.27;;;9.00;;
55364;SDS011;41245;45.384;20.390;2023-06-22T06:57:14;10.98;;;7.93;;
55364;SDS011;41245;45.384;20.390;2023-06-22T06:59:40;11.18;;;8.30;;
55364;SDS011;41245;45.384;20.390;2023-06-22T07:02:06;13.48;;;7.50;;
55364;SDS011;41245;45.384;20.390;2023-06-22T07:04:32;8.73;;;7.53;;
55364;SDS011;41245;45.384;20.390;2023-06-22T07:06:58;10.52;;;7.88;;
55364;SDS011;41245;45.384;20.390;2023-06-22T07:09:26;16.13;;;8.07;;
55364;SDS011;41245;45.384;20.390;2023-06-22T07:11:52;8.75;;;7.50;;
55364;SDS011;41245;45.384;20.390;2023-06-22T07:14:18;8.40;;;7.15;;
55364;SDS011;41245;45.384;20.390;2023-06-22T07:16:43;12.18;;;7.70;;
55364;SDS011;41245;45.384;20.390;2023-06-22T07:19:10;8.48;;;7.50;;
55364;SDS011;41245;45.384;20.390;2023-06-22T07:21:37;10.43;;;7.97;;
55364;SDS011;41245;45.384;20.390;2023-06-22T07:24:04;11.32;;;7.75;;
55364;SDS011;41245;45.384;20.390;2023-06-22T07:26:31;9.73;;;7.65;;
55364;SDS011;41245;45.384;20.390;2023-06-22T07:28:57;10.00;;;7.72;;
55364;SDS011;41245;45.384;20.390;2023-06-22T07:31:26;8.95;;;7.35;;
55364;SDS011;41245;45.384;20.390;2023-06-22T07:33:52;11.38;;;8.90;;
55364;SDS011;41245;45.384;20.390;2023-06-22T07:36:18;13.70;;;7.90;;
55364;SDS011;41245;45.384;20.390;2023-06-22T07:38:44;12.23;;;7.20;;
55364;SDS011;41245;45.384;20.390;2023-06-22T07:41:11;15.80;;;7.63;;
55364;SDS011;41245;45.384;20.390;2023-06-22T07:43:37;8.88;;;7.47;;
55364;SDS011;41245;45.384;20.390;2023-06-22T07:46:03;15.68;;;7.40;;
55364;SDS011;41245;45.384;20.390;2023-06-22T07:48:29;13.30;;;8.10;;
55364;SDS011;41245;45.384;20.390;2023-06-22T07:50:56;9.82;;;7.38;;
55364;SDS011;41245;45.384;20.390;2023-06-22T07:53:22;8.65;;;7.15;;
55364;SDS011;41245;45.384;20.390;2023-06-22T07:55:48;9.70;;;7.35;;
55364;SDS011;41245;45.384;20.390;2023-06-22T07:58:14;11.40;;;6.93;;
55364;SDS011;41245;45.384;20.390;2023-06-22T08:00:45;13.07;;;7.45;;
55364;SDS011;41245;45.384;20.390;2023-06-22T08:03:11;9.50;;;6.60;;
55364;SDS011;41245;45.384;20.390;2023-06-22T08:05:37;7.10;;;6.40;;
55364;SDS011;41245;45.384;20.390;2023-06-22T08:08:03;10.98;;;7.03;;
55364;SDS011;41245;45.384;20.390;2023-06-22T08:10:29;13.00;;;6.95;;
55364;SDS011;41245;45.384;20.390;2023-06-22T08:12:55;10.20;;;6.75;;
55364;SDS011;41245;45.384;20.390;2023-06-22T08:15:21;11.55;;;6.72;;
55364;SDS011;41245;45.384;20.390;2023-06-22T08:17:47;12.27;;;7.47;;
55364;SDS011;41245;45.384;20.390;2023-06-22T08:20:13;11.18;;;6.78;;
55364;SDS011;41245;45.384;20.390;2023-06-22T08:22:40;15.57;;;7.63;;
55364;SDS011;41245;45.384;20.390;2023-06-22T08:25:08;11.82;;;6.85;;
55364;SDS011;41245;45.384;20.390;2023-06-22T08:27:34;11.50;;;7.53;;
55364;SDS011;41245;45.384;20.390;2023-06-22T08:30:01;8.38;;;6.68;;
55364;SDS011;41245;45.384;20.390;2023-06-22T08:32:27;12.23;;;7.85;;
55364;SDS011;41245;45.384;20.390;2023-06-22T08:34:57;14.02;;;7.57;;
55364;SDS011;41245;45.384;20.390;2023-06-22T08:39:50;13.40;;;6.78;;
55364;SDS011;41245;45.384;20.390;2023-06-22T08:42:16;10.50;;;7.40;;
55364;SDS011;41245;45.384;20.390;2023-06-22T08:44:42;17.17;;;7.22;;
55364;SDS011;41245;45.384;20.390;2023-06-22T08:47:08;14.10;;;7.32;;
55364;SDS011;41245;45.384;20.390;2023-06-22T08:49:34;10.05;;;7.32;;
55364;SDS011;41245;45.384;20.390;2023-06-22T08:52:00;8.30;;;6.72;;
55364;SDS011;41245;45.384;20.390;2023-06-22T08:54:26;15.88;;;7.25;;
55364;SDS011;41245;45.384;20.390;2023-06-22T08:56:52;12.48;;;7.75;;
55364;SDS011;41245;45.384;20.390;2023-06-22T08:59:18;13.20;;;8.13;;
55364;SDS011;41245;45.384;20.390;2023-06-22T09:01:44;8.50;;;6.88;;
55364;SDS011;41245;45.384;20.390;2023-06-22T09:04:10;11.57;;;6.93;;
55364;SDS011;41245;45.384;20.390;2023-06-22T09:06:37;9.27;;;7.70;;
55364;SDS011;41245;45.384;20.390;2023-06-22T09:09:09;9.27;;;7.88;;
55364;SDS011;41245;45.384;20.390;2023-06-22T09:11:35;11.88;;;8.35;;
55364;SDS011;41245;45.384;20.390;2023-06-22T09:14:01;14.38;;;8.07;;
55364;SDS011;41245;45.384;20.390;2023-06-22T09:16:28;10.13;;;7.95;;
55364;SDS011;41245;45.384;20.390;2023-06-22T09:18:55;8.13;;;7.43;;
55364;SDS011;41245;45.384;20.390;2023-06-22T09:21:21;13.80;;;7.40;;
55364;SDS011;41245;45.384;20.390;2023-06-22T09:23:47;7.88;;;7.05;;
55364;SDS011;41245;45.384;20.390;2023-06-22T09:26:16;8.13;;;7.40;;
55364;SDS011;41245;45.384;20.390;2023-06-22T09:28:42;9.15;;;7.60;;
55364;SDS011;41245;45.384;20.390;2023-06-22T09:31:08;9.15;;;7.72;;
55364;SDS011;41245;45.384;20.390;2023-06-22T09:33:35;10.80;;;7.53;;
55364;SDS011;41245;45.384;20.390;2023-06-22T09:36:01;8.63;;;7.82;;
55364;SDS011;41245;45.384;20.390;2023-06-22T09:38:27;8.30;;;7.47;;
55364;SDS011;41245;45.384;20.390;2023-06-22T09:40:53;10.10;;;7.63;;
55364;SDS011;41245;45.384;20.390;2023-06-22T09:43:20;9.02;;;8.00;;
55364;SDS011;41245;45.384;20.390;2023-06-22T09:45:46;9.00;;;8.10;;
55364;SDS011;41245;45.384;20.390;2023-06-22T09:48:12;8.93;;;7.82;;
55364;SDS011;41245;45.384;20.390;2023-06-22T09:50:39;10.75;;;6.97;;
55364;SDS011;41245;45.384;20.390;2023-06-22T09:53:05;9.32;;;8.13;;
55364;SDS011;41245;45.384;20.390;2023-06-22T09:55:31;9.68;;;7.95;;
55364;SDS011;41245;45.384;20.390;2023-06-22T09:57:57;10.48;;;8.60;;
55364;SDS011;41245;45.384;20.390;2023-06-22T10:00:23;24.15;;;9.02;;
55364;SDS011;41245;45.384;20.390;2023-06-22T10:02:49;18.13;;;9.32;;
55364;SDS011;41245;45.384;20.390;2023-06-22T10:05:15;12.98;;;8.35;;
55364;SDS011;41245;45.384;20.390;2023-06-22T10:07:42;16.25;;;9.05;;
55364;SDS011;41245;45.384;20.390;2023-06-22T10:10:09;14.60;;;8.90;;
55364;SDS011;41245;45.384;20.390;2023-06-22T10:12:35;14.10;;;8.40;;
55364;SDS011;41245;45.384;20.390;2023-06-22T10:15:02;16.92;;;8.30;;
55364;SDS011;41245;45.384;20.390;2023-06-22T10:17:28;10.85;;;8.95;;
55364;SDS011;41245;45.384;20.390;2023-06-22T10:19:54;14.48;;;8.77;;
55364;SDS011;41245;45.384;20.390;2023-06-22T10:22:20;11.88;;;8.43;;
55364;SDS011;41245;45.384;20.390;2023-06-22T10:24:46;12.60;;;8.10;;
55364;SDS011;41245;45.384;20.390;2023-06-22T10:27:12;19.55;;;7.97;;
55364;SDS011;41245;45.384;20.390;2023-06-22T10:29:38;14.02;;;7.90;;
55364;SDS011;41245;45.384;20.390;2023-06-22T10:32:05;8.95;;;6.85;;
55364;SDS011;41245;45.384;20.390;2023-06-22T10:34:31;14.45;;;7.70;;
55364;SDS011;41245;45.384;20.390;2023-06-22T10:36:57;10.15;;;6.88;;
55364;SDS011;41245;45.384;20.390;2023-06-22T10:39:23;11.18;;;6.75;;
55364;SDS011;41245;45.384;20.390;2023-06-22T10:41:49;12.98;;;7.40;;
55364;SDS011;41245;45.384;20.390;2023-06-22T10:44:15;11.93;;;7.53;;
55364;SDS011;41245;45.384;20.390;2023-06-22T10:46:42;18.08;;;6.90;;
55364;SDS011;41245;45.384;20.390;2023-06-22T10:49:08;8.65;;;6.55;;
55364;SDS011;41245;45.384;20.390;2023-06-22T10:51:34;8.80;;;6.45;;
55364;SDS011;41245;45.384;20.390;2023-06-22T10:54:00;11.90;;;6.60;;
55364;SDS011;41245;45.384;20.390;2023-06-22T10:56:26;15.23;;;7.72;;
55364;SDS011;41245;45.384;20.390;2023-06-22T10:58:52;15.98;;;7.53;;
55364;SDS011;41245;45.384;20.390;2023-06-22T11:01:20;14.45;;;7.13;;
55364;SDS011;41245;45.384;20.390;2023-06-22T11:03:46;8.77;;;7.13;;
55364;SDS011;41245;45.384;20.390;2023-06-22T11:06:12;8.05;;;7.25;;
55364;SDS011;41245;45.384;20.390;2023-06-22T11:08:39;14.73;;;7.97;;
55364;SDS011;41245;45.384;20.390;2023-06-22T11:11:05;15.15;;;7.65;;
55364;SDS011;41245;45.384;20.390;2023-06-22T11:13:31;16.33;;;7.18;;
55364;SDS011;41245;45.384;20.390;2023-06-22T11:15:57;17.42;;;7.38;;
55364;SDS011;41245;45.384;20.390;2023-06-22T11:18:23;16.77;;;7.95;;
55364;SDS011;41245;45.384;20.390;2023-06-22T11:20:49;9.30;;;7.35;;
55364;SDS011;41245;45.384;20.390;2023-06-22T11:23:15;12.10;;;7.15;;
55364;SDS011;41245;45.384;20.390;2023-06-22T11:25:41;11.35;;;7.72;;
55364;SDS011;41245;45.384;20.390;2023-06-22T11:28:07;12.60;;;7.38;;
55364;SDS011;41245;45.384;20.390;2023-06-22T11:30:34;9.20;;;8.02;;
55364;SDS011;41245;45.384;20.390;2023-06-22T11:33:00;14.07;;;7.63;;
55364;SDS011;41245;45.384;20.390;2023-06-22T11:35:26;8.93;;;7.63;;
55364;SDS011;41245;45.384;20.390;2023-06-22T11:37:52;11.20;;;7.43;;
55364;SDS011;41245;45.384;20.390;2023-06-22T11:40:18;12.68;;;7.57;;
55364;SDS011;41245;45.384;20.390;2023-06-22T11:42:44;9.68;;;7.57;;
55364;SDS011;41245;45.384;20.390;2023-06-22T11:45:11;9.02;;;7.00;;
55364;SDS011;41245;45.384;20.390;2023-06-22T11:47:37;10.50;;;6.95;;
55364;SDS011;41245;45.384;20.390;2023-06-22T11:50:04;11.23;;;7.13;;
55364;SDS011;41245;45.384;20.390;2023-06-22T11:52:30;11.80;;;6.80;;
55364;SDS011;41245;45.384;20.390;2023-06-22T11:54:56;11.15;;;7.65;;
55364;SDS011;41245;45.384;20.390;2023-06-22T11:57:24;14.68;;;7.28;;
55364;SDS011;41245;45.384;20.390;2023-06-22T11:59:50;8.25;;;7.35;;
55364;SDS011;41245;45.384;20.390;2023-06-22T12:02:16;15.57;;;7.97;;
55364;SDS011;41245;45.384;20.390;2023-06-22T12:04:42;10.70;;;7.80;;
55364;SDS011;41245;45.384;20.390;2023-06-22T12:07:08;8.48;;;7.53;;
55364;SDS011;41245;45.384;20.390;2023-06-22T12:09:34;10.85;;;6.97;;
55364;SDS011;41245;45.384;20.390;2023-06-22T12:12:00;13.15;;;8.35;;
55364;SDS011;41245;45.384;20.390;2023-06-22T12:14:26;10.27;;;7.35;;
55364;SDS011;41245;45.384;20.390;2023-06-22T12:16:52;14.57;;;8.63;;
55364;SDS011;41245;45.384;20.390;2023-06-22T12:19:18;14.15;;;7.75;;
55364;SDS011;41245;45.384;20.390;2023-06-22T12:21:44;12.10;;;8.02;;
55364;SDS011;41245;45.384;20.390;2023-06-22T12:24:11;9.65;;;8.35;;
55364;SDS011;41245;45.384;20.390;2023-06-22T12:26:37;9.93;;;8.02;;
55364;SDS011;41245;45.384;20.390;2023-06-22T12:29:04;11.90;;;7.95;;
55364;SDS011;41245;45.384;20.390;2023-06-22T12:31:30;13.77;;;8.18;;
55364;SDS011;41245;45.384;20.390;2023-06-22T12:33:56;17.25;;;7.70;;
55364;SDS011;41245;45.384;20.390;2023-06-22T12:36:22;10.40;;;7.80;;
55364;SDS011;41245;45.384;20.390;2023-06-22T12:38:49;14.85;;;8.15;;
55364;SDS011;41245;45.384;20.390;2023-06-22T12:41:15;17.13;;;7.80;;
55364;SDS011;41245;45.384;20.390;2023-06-22T12:43:41;11.98;;;8.05;;
55364;SDS011;41245;45.384;20.390;2023-06-22T12:46:07;11.55;;;7.70;;
55364;SDS011;41245;45.384;20.390;2023-06-22T12:48:33;13.55;;;8.32;;
55364;SDS011;41245;45.384;20.390;2023-06-22T12:50:59;9.43;;;7.97;;
55364;SDS011;41245;45.384;20.390;2023-06-22T12:53:25;17.05;;;9.13;;
55364;SDS011;41245;45.384;20.390;2023-06-22T12:55:52;13.25;;;8.35;;
55364;SDS011;41245;45.384;20.390;2023-06-22T12:58:19;9.27;;;7.70;;
55364;SDS011;41245;45.384;20.390;2023-06-22T13:00:45;11.23;;;8.15;;
55364;SDS011;41245;45.384;20.390;2023-06-22T13:03:11;13.43;;;8.57;;
55364;SDS011;41245;45.384;20.390;2023-06-22T13:05:38;8.90;;;8.02;;
55364;SDS011;41245;45.384;20.390;2023-06-22T13:08:04;13.90;;;9.27;;
55364;SDS011;41245;45.384;20.390;2023-06-22T13:10:30;9.70;;;8.70;;
55364;SDS011;41245;45.384;20.390;2023-06-22T13:12:56;12.48;;;8.90;;
55364;SDS011;41245;45.384;20.390;2023-06-22T13:17:51;16.52;;;8.20;;
55364;SDS011;41245;45.384;20.390;2023-06-22T13:20:17;15.63;;;8.75;;
55364;SDS011;41245;45.384;20.390;2023-06-22T13:22:43;11.38;;;8.10;;
55364;SDS011;41245;45.384;20.390;2023-06-22T13:25:09;12.75;;;9.43;;
55364;SDS011;41245;45.384;20.390;2023-06-22T13:27:38;14.45;;;9.35;;
55364;SDS011;41245;45.384;20.390;2023-06-22T13:30:04;15.20;;;8.57;;
55364;SDS011;41245;45.384;20.390;2023-06-22T13:32:30;12.98;;;8.63;;
55364;SDS011;41245;45.384;20.390;2023-06-22T13:34:56;14.07;;;8.98;;
55364;SDS011;41245;45.384;20.390;2023-06-22T13:37:22;12.90;;;8.77;;
55364;SDS011;41245;45.384;20.390;2023-06-22T13:39:48;16.50;;;8.85;;
55364;SDS011;41245;45.384;20.390;2023-06-22T13:42:14;11.95;;;9.02;;
55364;SDS011;41245;45.384;20.390;2023-06-22T13:44:40;45.45;;;10.40;;
55364;SDS011;41245;45.384;20.390;2023-06-22T13:47:07;12.07;;;9.00;;
55364;SDS011;41245;45.384;20.390;2023-06-22T13:49:33;14.15;;;8.38;;
55364;SDS011;41245;45.384;20.390;2023-06-22T13:51:59;9.30;;;8.40;;
55364;SDS011;41245;45.384;20.390;2023-06-22T13:54:25;15.98;;;7.90;;
55364;SDS011;41245;45.384;20.390;2023-06-22T13:56:51;13.63;;;8.70;;
55364;SDS011;41245;45.384;20.390;2023-06-22T13:59:17;13.18;;;8.73;;
55364;SDS011;41245;45.384;20.390;2023-06-22T14:01:43;11.80;;;8.55;;
55364;SDS011;41245;45.384;20.390;2023-06-22T14:04:09;13.88;;;8.57;;
55364;SDS011;41245;45.384;20.390;2023-06-22T14:06:35;13.60;;;8.52;;
55364;SDS011;41245;45.384;20.390;2023-06-22T14:09:01;12.32;;;9.60;;
55364;SDS011;41245;45.384;20.390;2023-06-22T14:11:27;11.82;;;8.82;;
55364;SDS011;41245;45.384;20.390;2023-06-22T14:13:54;17.23;;;9.23;;
55364;SDS011;41245;45.384;20.390;2023-06-22T14:16:20;13.30;;;7.93;;
55364;SDS011;41245;45.384;20.390;2023-06-22T14:18:46;9.80;;;8.80;;
55364;SDS011;41245;45.384;20.390;2023-06-22T14:21:12;20.00;;;9.88;;
55364;SDS011;41245;45.384;20.390;2023-06-22T14:23:38;14.68;;;8.95;;
55364;SDS011;41245;45.384;20.390;2023-06-22T14:26:04;10.85;;;9.30;;
55364;SDS011;41245;45.384;20.390;2023-06-22T14:28:30;14.90;;;8.63;;
55364;SDS011;41245;45.384;20.390;2023-06-22T14:30:56;16.67;;;9.50;;
55364;SDS011;41245;45.384;20.390;2023-06-22T14:33:22;12.60;;;9.32;;
55364;SDS011;41245;45.384;20.390;2023-06-22T14:35:49;13.80;;;9.77;;
55364;SDS011;41245;45.384;20.390;2023-06-22T14:38:15;14.07;;;8.77;;